Airport ID:KCCB
Update Time (UTC):22/06/2018 03:37
Wind Speed (Knots):7
Wind Direction (Magnetic):250
Temperature (°C):21.7
Dew Point (°C):15
Humidity (%):66.5
Altimeter (inHg):29.92
Density Altitude (Feet):02800
Visibility (Miles):10
Clouds (Hundreds of feet):CLR
Present Weather:
METAR:METAR KCCB 220335Z AUTO 26008KT 10SM CLR 22/15 A2992 RMK AO2

The data displayed is for advisory purposes only and is not to be used for flight planning or operations.

This page is not automatically refreshed. Reload the page to see current data.